Time;durP1;ratioP1;P1;durP2;ratioP2;P2;SDS_P1;SDS_P2;PMS_P1;PMS_P2;Temp;Humidity;BMP_temperature;BMP_pressure;BME280_temperature;BME280_humidity;BME280_pressure;Samples;Min_cycle;Max_cycle;Signal;HPM_P1;HPM_P2
2023/09/06 00:00:55;;;;;;;7.57;4.20;;;;;;;23.23;64.58;101864.31;5087830;27;99026;-68
2023/09/06 00:03:21;;;;;;;4.68;3.53;;;;;;;23.27;64.26;101855.88;5091678;27;98035;-69
2023/09/06 00:05:48;;;;;;;10.00;4.03;;;;;;;23.03;65.47;101857.63;5088912;27;97500;-70
2023/09/06 00:08:16;;;;;;;7.20;4.03;;;;;;;22.82;66.23;101851.88;5090536;27;97021;-69
2023/09/06 00:10:43;;;;;;;8.38;3.60;;;;;;;23.07;65.41;101856.44;5092516;27;97821;-69
2023/09/06 00:13:12;;;;;;;6.05;4.05;;;;;;;22.91;66.08;101858.44;5092388;27;98875;-68
2023/09/06 00:15:39;;;;;;;6.50;4.65;;;;;;;22.91;66.16;101858.44;5089723;27;96767;-70
2023/09/06 00:18:06;;;;;;;9.30;4.53;;;;;;;22.96;65.72;101856.31;5089077;27;97219;-69
2023/09/06 00:20:34;;;;;;;6.20;3.83;;;;;;;23.03;65.22;101852.22;5090430;27;98987;-69
2023/09/06 00:23:04;;;;;;;6.82;4.32;;;;;;;22.88;65.32;101859.56;5087635;27;99126;-69
2023/09/06 00:25:30;;;;;;;6.60;4.28;;;;;;;22.99;64.86;101856.09;5092324;27;96757;-69
2023/09/06 00:27:59;;;;;;;5.72;4.47;;;;;;;23.22;63.78;101854.50;5089762;27;96963;-68
2023/09/06 00:30:27;;;;;;;7.60;4.18;;;;;;;23.23;63.92;101857.09;5088127;27;99318;-68
2023/09/06 00:32:53;;;;;;;6.63;4.35;;;;;;;22.95;64.30;101855.47;5087398;27;99425;-69
2023/09/06 00:35:20;;;;;;;6.65;4.30;;;;;;;23.04;64.63;101860.19;5090563;27;98075;-69
2023/09/06 00:37:47;;;;;;;7.47;4.55;;;;;;;22.92;64.78;101854.78;5089569;27;98872;-69
2023/09/06 00:40:17;;;;;;;7.07;4.60;;;;;;;22.86;64.77;101852.53;5088876;27;98852;-68
2023/09/06 00:42:46;;;;;;;6.97;4.70;;;;;;;22.71;66.51;101846.31;5092418;27;99009;-68
2023/09/06 00:45:13;;;;;;;6.82;4.05;;;;;;;22.63;67.35;101854.97;5089154;27;96880;-67
2023/09/06 00:47:42;;;;;;;10.27;5.07;;;;;;;22.56;68.01;101853.66;5088532;27;96909;-68
2023/09/06 00:50:10;;;;;;;8.40;4.43;;;;;;;22.70;67.37;101852.72;5088394;27;98898;-69
2023/09/06 00:52:37;;;;;;;7.25;4.75;;;;;;;22.58;67.77;101850.84;5088586;27;98769;-69
2023/09/06 00:55:05;;;;;;;5.75;4.18;;;;;;;22.59;67.65;101852.56;5090032;27;97225;-68
2023/09/06 00:57:32;;;;;;;5.28;4.30;;;;;;;22.67;67.38;101853.78;5098398;27;96869;-69
2023/09/06 00:59:59;;;;;;;6.18;4.60;;;;;;;22.43;68.18;101852.75;5094855;27;101846;-69
2023/09/06 01:02:26;;;;;;;6.93;4.38;;;;;;;22.49;67.66;101849.66;5088457;27;101676;-69
2023/09/06 01:04:54;;;;;;;13.27;4.95;;;;;;;22.54;67.36;101843.94;5091816;27;98242;-69
2023/09/06 01:07:24;;;;;;;6.70;5.03;;;;;;;22.40;68.00;101846.69;5090184;27;97465;-69
2023/09/06 01:09:52;;;;;;;9.48;4.82;;;;;;;22.40;68.41;101844.88;5095979;27;100289;-68
2023/09/06 01:12:19;;;;;;;6.95;5.03;;;;;;;22.38;68.64;101849.53;5093688;27;99239;-69
2023/09/06 01:14:45;;;;;;;7.88;4.53;;;;;;;22.39;68.68;101855.75;5094217;27;96889;-68
2023/09/06 01:17:16;;;;;;;6.50;4.68;;;;;;;22.29;68.76;101844.75;5092708;27;97973;-68
2023/09/06 01:19:48;;;;;;;8.60;4.97;;;;;;;22.13;69.79;101855.66;5088043;27;99194;-68
2023/09/06 01:22:23;;;;;;;6.80;4.75;;;;;;;22.13;70.16;101854.78;5093846;27;99997;-70
2023/09/06 01:24:51;;;;;;;8.25;4.80;;;;;;;22.22;69.60;101859.59;5091025;27;96904;-69
2023/09/06 01:27:18;;;;;;;13.80;5.03;;;;;;;22.35;68.90;101857.78;5094943;27;98609;-69
2023/09/06 01:29:44;;;;;;;6.55;4.45;;;;;;;22.37;68.75;101863.94;5094664;27;97884;-68
2023/09/06 01:32:11;;;;;;;8.95;5.20;;;;;;;22.29;69.11;101860.91;5091953;27;97545;-68
2023/09/06 01:34:37;;;;;;;7.97;4.78;;;;;;;22.14;69.63;101856.53;5090856;27;96838;-68
2023/09/06 01:37:04;;;;;;;6.80;4.45;;;;;;;22.12;70.32;101862.00;5091253;27;97105;-68
2023/09/06 01:39:30;;;;;;;7.13;4.40;;;;;;;22.17;70.38;101861.72;5101903;27;99124;-69
2023/09/06 01:41:58;;;;;;;6.20;4.57;;;;;;;22.10;70.71;101855.88;5092806;27;98076;-69
2023/09/06 01:44:26;;;;;;;7.68;4.55;;;;;;;22.06;70.64;101848.09;5096705;27;96739;-69
2023/09/06 01:46:53;;;;;;;7.07;4.60;;;;;;;22.14;70.25;101845.75;5089356;27;97816;-69
2023/09/06 01:49:19;;;;;;;7.25;4.22;;;;;;;22.03;70.62;101848.31;5091258;27;99326;-69
2023/09/06 01:51:46;;;;;;;6.18;4.78;;;;;;;22.08;70.43;101841.66;5089399;27;99361;-69
2023/09/06 01:54:12;;;;;;;6.53;4.85;;;;;;;22.12;70.21;101848.53;5092937;27;96824;-69
2023/09/06 01:56:38;;;;;;;6.05;4.57;;;;;;;22.05;69.97;101849.94;5091100;27;96856;-70
2023/09/06 01:59:06;;;;;;;8.90;5.00;;;;;;;22.04;69.70;101845.53;5091488;27;101339;-70
2023/09/06 02:01:33;;;;;;;5.55;4.20;;;;;;;22.03;69.92;101842.94;5086162;27;98878;-70
2023/09/06 02:03:59;;;;;;;6.50;4.40;;;;;;;21.88;70.80;101842.94;5090917;27;96910;-69
2023/09/06 02:06:25;;;;;;;6.72;4.53;;;;;;;21.90;70.35;101833.91;5091530;27;96981;-70
2023/09/06 02:08:52;;;;;;;8.52;5.03;;;;;;;21.82;70.83;101827.19;5091596;27;98926;-70
2023/09/06 02:11:20;;;;;;;6.30;4.43;;;;;;;22.00;69.98;101837.72;5096287;27;98839;-70
2023/09/06 02:13:47;;;;;;;6.65;4.38;;;;;;;21.91;70.27;101828.44;5090510;27;100753;-70
2023/09/06 02:16:15;;;;;;;7.65;4.88;;;;;;;22.09;69.54;101832.63;5092302;27;97321;-70
2023/09/06 02:18:41;;;;;;;9.18;5.07;;;;;;;22.05;69.69;101832.94;5090452;27;98926;-70
2023/09/06 02:21:08;;;;;;;10.25;4.68;;;;;;;22.18;68.95;101833.84;5091219;27;99391;-70
2023/09/06 02:23:35;;;;;;;10.18;4.68;;;;;;;22.07;68.85;101833.66;5089428;27;96954;-70
2023/09/06 02:26:03;;;;;;;9.43;4.85;;;;;;;22.13;68.65;101839.50;5090553;27;97313;-69
2023/09/06 02:28:29;;;;;;;7.57;4.63;;;;;;;21.82;69.43;101845.16;5092259;27;98805;-72
2023/09/06 02:30:55;;;;;;;9.30;5.05;;;;;;;21.95;69.08;101835.31;5088553;27;98813;-69
2023/09/06 02:33:25;;;;;;;7.75;4.80;;;;;;;22.00;68.92;101838.59;5090401;27;96720;-70
2023/09/06 02:35:51;;;;;;;7.53;5.25;;;;;;;21.99;69.48;101836.03;5089118;27;96851;-68
2023/09/06 02:38:18;;;;;;;10.52;5.30;;;;;;;21.93;69.35;101837.25;5090504;27;99792;-69
2023/09/06 02:40:44;;;;;;;8.57;5.13;;;;;;;22.06;68.27;101843.56;5092332;27;100583;-69
2023/09/06 02:43:13;;;;;;;9.02;5.00;;;;;;;22.23;67.50;101839.78;5093071;27;96834;-69
2023/09/06 02:45:39;;;;;;;9.07;4.97;;;;;;;22.04;67.95;101842.84;5094697;27;96898;-69
2023/09/06 02:48:06;;;;;;;8.57;5.25;;;;;;;22.11;65.79;101845.97;5091873;27;98104;-69
2023/09/06 02:50:35;;;;;;;12.40;5.00;;;;;;;22.15;65.30;101852.88;5090630;27;99246;-70
2023/09/06 02:53:03;;;;;;;6.38;4.95;;;;;;;22.45;64.58;101850.81;5090161;27;96843;-68
2023/09/06 02:55:30;;;;;;;6.55;5.00;;;;;;;22.31;65.39;101853.59;5090576;27;97021;-69
2023/09/06 02:57:56;;;;;;;8.38;5.35;;;;;;;22.27;65.12;101849.34;5089522;27;98950;-68
2023/09/06 03:00:25;;;;;;;6.82;5.35;;;;;;;22.04;66.59;101855.44;5089034;27;98727;-70
2023/09/06 03:02:52;;;;;;;6.57;4.95;;;;;;;22.01;67.00;101867.25;5090380;27;97018;-70
2023/09/06 03:05:20;;;;;;;7.85;4.85;;;;;;;21.92;68.29;101859.75;5090274;27;98653;-69
2023/09/06 03:07:49;;;;;;;6.68;4.93;;;;;;;22.02;67.84;101865.41;5091026;27;98071;-68
2023/09/06 03:10:19;;;;;;;17.33;5.22;;;;;;;21.93;68.22;101872.22;5093290;27;100747;-68
2023/09/06 03:12:46;;;;;;;10.98;4.72;;;;;;;21.90;68.32;101866.19;5096338;27;96915;-68
2023/09/06 03:15:13;;;;;;;9.50;4.47;;;;;;;22.10;67.64;101881.94;5092425;27;96980;-68
2023/09/06 03:17:39;;;;;;;8.63;5.40;;;;;;;22.04;67.87;101876.97;5090129;27;99381;-68
2023/09/06 03:20:18;;;;;;;10.55;5.15;;;;;;;21.75;68.98;101878.81;5089726;27;99129;-68
2023/09/06 03:22:49;;;;;;;6.25;4.82;;;;;;;21.59;70.70;101875.38;5089929;27;98685;-69
2023/09/06 03:25:16;;;;;;;8.98;5.32;;;;;;;21.71;70.44;101880.84;5091458;27;96903;-68
2023/09/06 03:27:42;;;;;;;9.45;5.03;;;;;;;21.66;71.00;101884.78;5090478;27;99407;-68
2023/09/06 03:30:09;;;;;;;8.95;5.22;;;;;;;21.50;71.46;101879.50;5090066;27;101176;-68
2023/09/06 03:32:36;;;;;;;6.47;5.30;;;;;;;21.38;72.06;101881.16;5089376;27;96850;-68
2023/09/06 03:35:04;;;;;;;8.60;5.05;;;;;;;21.47;71.46;101877.88;5087135;27;98754;-69
2023/09/06 03:37:31;;;;;;;7.40;5.32;;;;;;;21.52;71.20;101882.97;5087022;27;98972;-69
2023/09/06 03:39:59;;;;;;;8.13;4.95;;;;;;;21.48;71.24;101890.34;5090272;27;98923;-68
2023/09/06 03:42:25;;;;;;;10.80;6.72;;;;;;;21.61;70.54;101890.44;5094975;27;96827;-67
2023/09/06 03:44:52;;;;;;;9.95;5.28;;;;;;;21.58;70.78;101896.03;5094264;27;97022;-68
2023/09/06 03:47:19;;;;;;;7.97;5.30;;;;;;;21.40;71.40;101892.66;5089980;27;97745;-69
2023/09/06 03:49:46;;;;;;;11.07;5.65;;;;;;;21.52;71.13;101893.72;5090947;27;98352;-67
2023/09/06 03:52:16;;;;;;;7.07;5.10;;;;;;;21.59;70.59;101886.16;5090724;27;97205;-68
2023/09/06 03:54:42;;;;;;;7.82;5.00;;;;;;;21.36;71.84;101895.63;5098673;27;96871;-69
2023/09/06 03:57:12;;;;;;;9.65;5.32;;;;;;;21.38;71.59;101899.97;5090657;27;99001;-68
2023/09/06 03:59:40;;;;;;;10.45;5.45;;;;;;;21.42;71.45;101903.31;5089967;27;98935;-68
2023/09/06 04:02:08;;;;;;;6.57;5.22;;;;;;;21.50;71.40;101906.41;5090941;27;96716;-68
2023/09/06 04:04:34;;;;;;;7.80;5.47;;;;;;;21.44;71.01;101902.28;5091261;27;99646;-68
2023/09/06 04:07:01;;;;;;;6.10;5.40;;;;;;;21.40;71.18;101902.53;5091788;27;99135;-68
2023/09/06 04:09:30;;;;;;;8.73;5.75;;;;;;;21.34;71.42;101911.00;5086630;27;97542;-68
2023/09/06 04:12:00;;;;;;;7.13;5.30;;;;;;;21.18;71.90;101912.91;5087633;27;98962;-68
2023/09/06 04:14:29;;;;;;;6.75;5.30;;;;;;;21.37;71.48;101916.19;5088299;27;96781;-72
2023/09/06 04:16:55;;;;;;;15.93;6.53;;;;;;;21.15;71.79;101913.06;5097295;27;100078;-67
2023/09/06 04:19:22;;;;;;;7.65;5.22;;;;;;;21.32;71.50;101907.56;5090695;27;97598;-68
2023/09/06 04:21:49;;;;;;;11.68;5.88;;;;;;;20.98;72.13;101912.28;5085714;27;97029;-68
2023/09/06 04:24:15;;;;;;;9.02;5.60;;;;;;;21.15;71.92;101907.69;5088788;27;97052;-68
2023/09/06 04:26:41;;;;;;;11.57;5.35;;;;;;;21.15;71.76;101911.25;5090148;27;98863;-68
2023/09/06 04:29:08;;;;;;;8.38;5.22;;;;;;;20.98;72.75;101912.28;5091809;27;99054;-68
2023/09/06 04:31:35;;;;;;;7.50;5.43;;;;;;;21.07;72.33;101913.53;5090234;27;97596;-68
2023/09/06 04:34:19;;;;;;;6.22;4.80;;;;;;;20.98;73.03;101920.34;5099097;27;96868;-69
2023/09/06 04:36:45;;;;;;;8.77;5.40;;;;;;;20.89;73.09;101920.00;5094619;27;97913;-67
2023/09/06 04:39:11;;;;;;;8.40;5.43;;;;;;;20.99;72.90;101914.00;5103072;27;99649;-67
2023/09/06 04:41:38;;;;;;;8.95;5.90;;;;;;;21.10;72.37;101913.34;5099770;27;96827;-67
2023/09/06 04:44:05;;;;;;;8.32;4.90;;;;;;;21.22;71.34;101914.44;5092224;27;98003;-68
2023/09/06 04:46:31;;;;;;;9.45;5.80;;;;;;;21.08;72.15;101918.81;5089936;27;98879;-69
2023/09/06 04:48:59;;;;;;;8.98;5.43;;;;;;;21.05;72.43;101928.91;5094152;27;98031;-68
2023/09/06 04:51:25;;;;;;;13.85;5.95;;;;;;;21.05;72.23;101924.38;5094343;27;98361;-68
2023/09/06 04:53:52;;;;;;;14.68;6.25;;;;;;;21.20;71.43;101922.59;5094479;27;96923;-68
2023/09/06 04:56:19;;;;;;;8.07;5.55;;;;;;;21.21;71.27;101928.84;5091375;27;98928;-68
2023/09/06 04:58:46;;;;;;;8.73;5.68;;;;;;;21.29;70.83;101929.25;5091161;27;100767;-68
2023/09/06 05:01:12;;;;;;;6.38;5.32;;;;;;;21.19;71.09;101934.34;5092999;27;96758;-69
2023/09/06 05:03:40;;;;;;;9.07;5.90;;;;;;;21.44;70.04;101936.38;5091597;27;97057;-68
2023/09/06 05:06:08;;;;;;;12.25;5.88;;;;;;;21.60;68.98;101939.81;5092606;27;99688;-68
2023/09/06 05:08:34;;;;;;;10.75;5.97;;;;;;;21.81;68.33;101933.09;5097980;27;99213;-68
2023/09/06 05:11:00;;;;;;;11.98;5.65;;;;;;;21.55;68.14;101935.69;5092831;27;97302;-67
2023/09/06 05:13:27;;;;;;;7.72;5.53;;;;;;;21.75;67.58;101930.78;5091562;27;96989;-69
2023/09/06 05:16:01;;;;;;;10.05;6.32;;;;;;;21.93;66.72;101935.94;5091258;27;98878;-69
2023/09/06 05:18:28;;;;;;;10.15;6.15;;;;;;;22.20;65.78;101939.56;5090968;27;100624;-68
2023/09/06 05:20:55;;;;;;;12.30;5.75;;;;;;;22.10;66.13;101942.00;5093177;27;96834;-68
2023/09/06 05:23:23;;;;;;;14.38;6.15;;;;;;;22.29;64.88;101941.69;5092887;27;98888;-67
2023/09/06 05:25:50;;;;;;;12.60;6.63;;;;;;;22.24;64.70;101941.13;5090724;27;97806;-68
2023/09/06 05:28:16;;;;;;;12.75;5.80;;;;;;;22.45;64.07;101945.06;5093098;27;99264;-68
2023/09/06 05:30:44;;;;;;;12.98;6.45;;;;;;;22.53;63.94;101948.13;5092107;27;97107;-68
2023/09/06 05:33:11;;;;;;;11.00;6.38;;;;;;;22.46;64.30;101938.72;5091759;27;97277;-69
2023/09/06 05:35:38;;;;;;;13.68;6.20;;;;;;;22.52;64.08;101946.38;5089132;27;97802;-68
2023/09/06 05:38:05;;;;;;;15.23;6.43;;;;;;;22.76;63.17;101941.25;5094462;27;99052;-71
2023/09/06 05:40:34;;;;;;;39.67;8.00;;;;;;;22.66;63.07;101942.78;5097237;27;97208;-69
2023/09/06 05:43:01;;;;;;;28.55;6.50;;;;;;;22.67;63.07;101937.28;5101907;27;96790;-68
2023/09/06 05:45:27;;;;;;;14.13;6.50;;;;;;;22.70;63.21;101947.00;5091998;27;99186;-68
2023/09/06 05:47:54;;;;;;;9.32;5.85;;;;;;;22.83;62.84;101947.06;5089797;27;98926;-67
2023/09/06 05:50:21;;;;;;;8.98;5.93;;;;;;;23.00;61.35;101950.34;5092132;27;96819;-69
2023/09/06 05:52:47;;;;;;;11.77;6.20;;;;;;;23.17;61.07;101951.03;5094001;27;98732;-68
2023/09/06 05:55:14;;;;;;;10.35;5.95;;;;;;;23.29;60.53;101952.84;5090201;27;98850;-68
2023/09/06 05:57:42;;;;;;;15.10;6.78;;;;;;;23.44;59.83;101965.25;5087224;27;99160;-68
2023/09/06 06:00:15;;;;;;;10.85;6.30;;;;;;;23.49;59.89;101963.16;5091043;27;96748;-69
2023/09/06 06:02:42;;;;;;;13.82;6.15;;;;;;;23.68;58.70;101965.41;5089729;27;96840;-68
2023/09/06 06:05:09;;;;;;;16.15;6.40;;;;;;;23.84;58.47;101966.00;5086299;27;99184;-68
2023/09/06 06:07:35;;;;;;;14.20;6.90;;;;;;;23.74;58.48;101954.16;5091053;27;98790;-69
2023/09/06 06:10:03;;;;;;;17.83;7.00;;;;;;;23.72;58.16;101961.50;5089578;27;96962;-69
2023/09/06 06:12:29;;;;;;;13.63;8.23;;;;;;;23.81;58.14;101959.03;5095508;27;97068;-68
2023/09/06 06:15:00;;;;;;;12.82;6.78;;;;;;;23.92;57.08;101958.22;5095567;27;99466;-68
2023/09/06 06:17:27;;;;;;;15.20;6.65;;;;;;;23.96;57.07;101957.03;5103064;27;99616;-68
2023/09/06 06:19:53;;;;;;;17.90;7.03;;;;;;;24.23;55.63;101955.03;5091203;27;96984;-68
2023/09/06 06:22:19;;;;;;;18.35;7.63;;;;;;;24.17;56.02;101960.00;5098784;27;96972;-69
2023/09/06 06:24:47;;;;;;;13.77;6.93;;;;;;;24.18;55.11;101962.59;5089700;27;100718;-70
2023/09/06 06:27:14;;;;;;;11.55;6.50;;;;;;;24.34;54.97;101956.09;5094741;27;98643;-68
2023/09/06 06:29:40;;;;;;;15.38;7.35;;;;;;;24.61;54.54;101954.03;5099089;27;97770;-68
2023/09/06 06:32:08;;;;;;;14.43;6.53;;;;;;;24.62;53.97;101959.31;5092331;27;96743;-68
2023/09/06 06:34:38;;;;;;;18.00;6.50;;;;;;;24.67;53.41;101961.69;5088857;27;99295;-67
2023/09/06 06:37:05;;;;;;;11.60;6.63;;;;;;;24.86;53.06;101964.72;5092947;27;99574;-67
2023/09/06 06:39:31;;;;;;;9.40;6.30;;;;;;;24.75;53.47;101961.06;5093185;27;96894;-68
2023/09/06 06:41:57;;;;;;;16.08;6.72;;;;;;;24.93;52.29;101967.84;5086130;27;97764;-68
2023/09/06 06:44:24;;;;;;;11.20;6.28;;;;;;;24.81;52.22;101963.34;5089427;27;99207;-69
2023/09/06 06:46:50;;;;;;;17.35;7.30;;;;;;;24.82;52.14;101962.34;5087080;27;99090;-69
2023/09/06 06:49:18;;;;;;;17.48;6.97;;;;;;;25.34;51.30;101964.59;5085814;27;101042;-68
2023/09/06 06:51:44;;;;;;;13.73;6.88;;;;;;;25.52;50.97;101973.16;5089537;27;97510;-69
2023/09/06 06:54:14;;;;;;;16.85;7.18;;;;;;;25.76;49.83;101973.91;5085103;27;98839;-69
2023/09/06 06:56:41;;;;;;;14.60;5.93;;;;;;;25.61;49.74;101967.00;5094759;27;98632;-69
2023/09/06 06:59:08;;;;;;;10.77;5.85;;;;;;;25.99;49.01;101970.19;5089653;27;97226;-70
2023/09/06 07:01:35;;;;;;;24.77;6.78;;;;;;;26.10;49.02;101967.50;5087946;27;97646;-69
2023/09/06 07:04:04;;;;;;;18.77;6.10;;;;;;;25.89;48.65;101968.38;5088213;27;98752;-68
2023/09/06 07:06:32;;;;;;;17.63;6.40;;;;;;;25.94;48.66;101972.44;5090363;27;99066;-70
2023/09/06 07:08:59;;;;;;;12.80;6.47;;;;;;;26.44;48.50;101967.47;5095570;27;96898;-70
2023/09/06 07:11:25;;;;;;;10.13;6.13;;;;;;;26.65;46.93;101976.50;5092183;27;97137;-70
2023/09/06 07:13:52;;;;;;;15.45;6.47;;;;;;;26.35;47.57;101979.06;5091222;27;99363;-70
2023/09/06 07:16:21;;;;;;;19.02;6.70;;;;;;;26.26;47.84;101986.09;5098297;27;98804;-68
2023/09/06 07:18:48;;;;;;;10.70;6.03;;;;;;;26.65;47.03;101976.50;5094045;27;96972;-68
2023/09/06 07:21:15;;;;;;;21.98;8.23;;;;;;;26.73;46.36;101978.56;5093566;27;97116;-71
2023/09/06 07:23:42;;;;;;;18.38;7.57;;;;;;;26.43;46.49;101985.59;5088578;27;100964;-68
2023/09/06 07:26:09;;;;;;;11.05;7.05;;;;;;;26.40;46.37;101979.53;5088248;27;98184;-68
2023/09/06 07:28:38;;;;;;;12.32;6.25;;;;;;;26.62;46.30;101975.91;5086340;27;97746;-69
2023/09/06 07:31:05;;;;;;;17.02;6.40;;;;;;;26.69;46.40;101986.13;5090722;27;96950;-69
2023/09/06 07:33:31;;;;;;;13.73;6.97;;;;;;;26.83;45.83;101979.53;5086246;27;98977;-69
2023/09/06 07:35:58;;;;;;;8.10;6.10;;;;;;;27.05;44.50;101974.00;5089111;27;98771;-69
2023/09/06 07:38:25;;;;;;;15.90;7.40;;;;;;;27.26;43.93;101979.44;5088699;27;97104;-70
2023/09/06 07:40:57;;;;;;;10.32;6.72;;;;;;;27.26;43.60;101990.31;5086837;27;97175;-69
2023/09/06 07:43:24;;;;;;;17.25;6.95;;;;;;;27.50;43.31;101984.63;5086312;27;99032;-69
2023/09/06 07:45:50;;;;;;;21.08;6.07;;;;;;;27.98;42.25;101984.84;5088421;27;99239;-68
2023/09/06 07:48:17;;;;;;;11.90;6.45;;;;;;;27.96;42.35;101995.03;5085082;27;97739;-68
2023/09/06 07:50:43;;;;;;;20.85;8.25;;;;;;;27.97;42.26;101983.13;5084457;27;96942;-68
2023/09/06 07:53:09;;;;;;;13.70;6.50;;;;;;;27.86;42.15;101988.69;5086821;27;100447;-68
2023/09/06 07:55:37;;;;;;;14.25;6.70;;;;;;;27.78;42.50;101989.34;5091729;27;99082;-69
2023/09/06 07:58:06;;;;;;;17.17;7.18;;;;;;;28.23;42.10;101994.41;5085936;27;96881;-68
2023/09/06 08:00:32;;;;;;;13.05;6.90;;;;;;;28.67;40.94;101991.22;5086999;27;97005;-69
2023/09/06 08:02:59;;;;;;;12.15;5.47;;;;;;;29.00;40.02;101989.13;5076290;27;99740;-68
2023/09/06 08:05:26;;;;;;;16.25;6.05;;;;;;;28.47;40.38;101993.06;5087071;27;98832;-69
2023/09/06 08:07:52;;;;;;;15.80;5.95;;;;;;;28.92;40.54;101996.13;5089845;27;96721;-69
2023/09/06 08:10:19;;;;;;;12.93;6.50;;;;;;;29.35;39.96;101996.69;5085490;27;97128;-69
2023/09/06 08:12:45;;;;;;;15.90;6.15;;;;;;;29.25;38.37;101999.41;5089869;27;99626;-69
2023/09/06 08:15:13;;;;;;;25.98;6.70;;;;;;;29.30;38.29;102007.97;5089858;27;99120;-68
2023/09/06 08:17:40;;;;;;;12.82;5.80;;;;;;;29.26;38.87;102003.84;5092771;27;97115;-68
2023/09/06 08:20:09;;;;;;;9.65;5.30;;;;;;;29.34;38.28;102004.00;5090822;27;98672;-68
2023/09/06 08:22:35;;;;;;;11.93;6.32;;;;;;;29.49;37.67;102002.53;5087603;27;98972;-67
2023/09/06 08:25:02;;;;;;;13.38;6.20;;;;;;;29.47;38.00;101996.34;5094056;27;98897;-68
2023/09/06 08:27:28;;;;;;;17.45;6.35;;;;;;;29.52;38.31;102001.38;5085734;27;99058;-68
2023/09/06 08:29:55;;;;;;;12.75;5.80;;;;;;;29.77;37.80;101999.88;5090475;27;96866;-69
2023/09/06 08:32:22;;;;;;;15.73;7.75;;;;;;;29.80;37.90;102002.31;5091406;27;101409;-69
2023/09/06 08:34:49;;;;;;;11.27;6.68;;;;;;;29.73;37.92;102004.78;5090954;27;99143;-69
2023/09/06 08:37:15;;;;;;;12.85;6.35;;;;;;;30.01;37.02;102000.22;5091568;27;97136;-67
2023/09/06 08:39:41;;;;;;;19.45;5.70;;;;;;;29.93;37.27;102000.13;5086626;27;97112;-68
2023/09/06 08:42:08;;;;;;;11.43;5.72;;;;;;;29.97;35.67;101998.81;5086103;27;98848;-69
2023/09/06 08:44:36;;;;;;;12.65;5.43;;;;;;;29.90;36.71;101998.53;5088265;27;99298;-68
2023/09/06 08:47:07;;;;;;;7.40;4.97;;;;;;;30.01;35.90;102002.94;5092603;27;96708;-69
2023/09/06 08:49:36;;;;;;;10.77;5.40;;;;;;;30.00;35.22;102003.94;5088671;27;97701;-67
2023/09/06 08:52:04;;;;;;;11.93;5.25;;;;;;;29.71;36.07;102002.19;5090742;27;98922;-69
2023/09/06 08:54:31;;;;;;;10.63;4.97;;;;;;;29.98;35.98;102004.13;5087266;27;102169;-71
2023/09/06 08:56:58;;;;;;;18.58;5.55;;;;;;;30.03;35.90;102003.66;5092676;27;97052;-72
2023/09/06 08:59:27;;;;;;;9.68;4.70;;;;;;;30.21;35.85;102001.84;5085443;27;97009;-72
2023/09/06 09:01:54;;;;;;;11.90;5.53;;;;;;;30.14;35.91;102000.72;5089457;27;99414;-72
2023/09/06 09:04:20;;;;;;;14.70;5.13;;;;;;;30.21;34.96;102007.28;5088921;27;99219;-72
2023/09/06 09:06:49;;;;;;;15.73;5.15;;;;;;;30.48;34.53;102000.97;5093258;27;96806;-73
2023/09/06 09:09:17;;;;;;;17.25;5.30;;;;;;;30.33;35.04;102011.53;5093491;27;97456;-72
2023/09/06 09:11:49;;;;;;;10.30;4.75;;;;;;;29.99;34.88;102008.56;5091831;27;99083;-72
2023/09/06 09:14:21;;;;;;;12.55;5.15;;;;;;;30.26;35.04;101990.50;5087384;27;98999;-71
2023/09/06 09:16:54;;;;;;;10.93;4.93;;;;;;;30.31;34.55;102004.53;5093174;27;96732;-71
2023/09/06 09:19:21;;;;;;;10.43;4.80;;;;;;;30.20;34.21;101991.94;5092079;27;96808;-71
2023/09/06 09:21:50;;;;;;;9.23;5.07;;;;;;;29.75;34.93;102005.47;5088430;27;98933;-72
2023/09/06 09:24:25;;;;;;;9.80;4.65;;;;;;;30.02;35.06;101996.50;5089790;27;98924;-72
2023/09/06 09:26:51;;;;;;;10.50;5.53;;;;;;;29.90;34.80;102003.97;5093533;27;97206;-71
2023/09/06 09:29:18;;;;;;;12.80;4.57;;;;;;;30.35;34.31;102001.34;5092294;27;97282;-71
2023/09/06 09:31:46;;;;;;;6.55;4.03;;;;;;;30.54;33.51;102011.28;5092191;27;101921;-71
2023/09/06 09:34:13;;;;;;;11.02;5.00;;;;;;;30.56;33.13;102003.81;5091892;27;100327;-71
2023/09/06 09:36:39;;;;;;;8.27;3.95;;;;;;;30.55;33.17;102003.97;5092298;27;97327;-71
2023/09/06 09:39:08;;;;;;;8.07;4.82;;;;;;;30.49;33.26;102014.50;5091930;27;97077;-71
2023/09/06 09:41:35;;;;;;;11.85;4.78;;;;;;;30.67;33.92;102014.50;5089128;27;98745;-71
2023/09/06 09:44:14;;;;;;;12.13;4.93;;;;;;;30.86;32.80;102010.75;5091615;27;98807;-71
2023/09/06 09:46:43;;;;;;;12.02;5.25;;;;;;;30.39;34.52;102008.19;5091812;27;97014;-71
2023/09/06 09:49:11;;;;;;;10.70;5.40;;;;;;;30.50;34.15;102015.34;5084604;27;97412;-71
2023/09/06 09:51:38;;;;;;;10.63;4.40;;;;;;;30.40;34.20;102014.50;5083974;27;99364;-71
2023/09/06 09:54:06;;;;;;;8.88;4.32;;;;;;;30.66;33.66;102004.59;5083332;27;99371;-72
2023/09/06 09:56:35;;;;;;;12.05;4.90;;;;;;;30.58;33.13;102011.84;5091069;27;96890;-72
2023/09/06 09:59:03;;;;;;;10.27;4.13;;;;;;;30.43;33.28;102004.16;5092611;27;97141;-71
2023/09/06 10:01:30;;;;;;;9.60;4.10;;;;;;;30.73;32.93;102000.25;5084606;27;99214;-73
2023/09/06 10:03:57;;;;;;;9.00;4.65;;;;;;;30.89;32.54;101999.56;5085143;27;101768;-72
2023/09/06 10:06:24;;;;;;;8.40;4.50;;;;;;;30.97;32.50;102001.50;5094375;27;96809;-72
2023/09/06 10:08:54;;;;;;;10.02;4.18;;;;;;;30.95;31.96;102003.50;5090557;27;96808;-73
2023/09/06 10:11:21;;;;;;;7.50;4.50;;;;;;;30.92;32.56;102001.94;5092467;27;99184;-72
2023/09/06 10:13:50;;;;;;;7.07;3.92;;;;;;;30.96;33.12;102006.09;5093806;27;99202;-72
2023/09/06 10:16:16;;;;;;;9.63;5.45;;;;;;;30.98;32.83;102003.22;5090493;27;98711;-71
2023/09/06 10:18:43;;;;;;;16.33;5.47;;;;;;;30.73;33.48;102005.69;5093007;27;98259;-72
2023/09/06 10:21:10;;;;;;;10.73;5.35;;;;;;;30.57;33.90;102004.69;5093083;27;99058;-72
2023/09/06 10:23:41;;;;;;;49.13;15.73;;;;;;;30.75;33.77;102000.94;5091664;27;100704;-72
2023/09/06 10:26:08;;;;;;;11.40;5.38;;;;;;;30.79;33.18;102004.22;5090182;27;96812;-71
2023/09/06 10:28:35;;;;;;;11.35;4.82;;;;;;;30.73;32.64;102013.03;5090382;27;97358;-72
2023/09/06 10:31:08;;;;;;;5.25;4.50;;;;;;;30.69;32.24;102007.03;5092306;27;99418;-72
2023/09/06 10:33:54;;;;;;;10.30;4.47;;;;;;;30.60;33.06;102005.22;5088159;27;98849;-72
2023/09/06 10:36:22;;;;;;;5.70;4.00;;;;;;;30.87;32.49;102015.22;5088551;27;96835;-74
2023/09/06 10:39:16;;;;;;;9.23;4.35;;;;;;;30.82;31.12;102009.38;5087692;27;96915;-73
2023/09/06 10:42:28;;;;;;;6.43;3.80;;;;;;;30.65;30.42;102010.22;5089988;27;99715;-74
2023/09/06 10:45:09;;;;;;;7.13;4.25;;;;;;;30.53;31.55;102011.44;5090387;27;98871;-73
2023/09/06 10:47:37;;;;;;;7.95;4.57;;;;;;;30.63;31.87;102009.53;5089186;27;97503;-73
2023/09/06 10:50:11;;;;;;;5.13;3.78;;;;;;;30.89;31.28;102005.88;5090540;27;97563;-73
2023/09/06 10:52:48;;;;;;;12.57;4.18;;;;;;;30.61;30.03;101998.75;5089294;27;98862;-75
2023/09/06 10:55:17;;;;;;;4.97;3.42;;;;;;;30.89;30.12;102000.41;5086117;27;98905;-73
2023/09/06 10:57:52;;;;;;;5.53;3.50;;;;;;;30.90;30.32;101998.53;5088242;27;96879;-73
2023/09/06 11:00:20;;;;;;;9.63;4.33;;;;;;;30.93;30.71;101995.47;5088510;27;97014;-73
2023/09/06 11:03:14;;;;;;;7.60;4.30;;;;;;;30.69;30.67;101992.53;5089554;27;99625;-72
2023/09/06 11:05:42;;;;;;;5.85;3.65;;;;;;;30.62;30.75;101994.16;5090486;27;101751;-74
2023/09/06 11:08:10;;;;;;;4.60;3.75;;;;;;;30.63;30.81;101994.00;5091776;27;96803;-72
2023/09/06 11:10:37;;;;;;;6.35;3.35;;;;;;;30.78;30.46;101987.00;5085961;27;96866;-72
2023/09/06 11:13:10;;;;;;;11.20;3.67;;;;;;;30.76;30.02;101982.72;5089370;27;98671;-73
2023/09/06 11:15:37;;;;;;;9.00;4.30;;;;;;;30.92;30.74;101987.47;5092191;27;101196;-72
2023/09/06 11:18:04;;;;;;;11.00;4.63;;;;;;;31.00;30.39;101982.91;5088476;27;97105;-72
2023/09/06 11:20:34;;;;;;;5.82;3.60;;;;;;;30.67;29.39;101978.19;5092188;27;97283;-73
2023/09/06 11:23:02;;;;;;;6.35;3.80;;;;;;;30.65;29.57;101982.94;5091683;27;98919;-73
2023/09/06 11:25:31;;;;;;;4.88;3.25;;;;;;;30.59;29.73;101976.22;5090842;27;98152;-72